Date,TemperatureHighF,TemperatureAvgF,TemperatureLowF,DewpointHighF,DewpointAvgF,DewpointLowF,HumidityHigh,HumidityAvg,HumidityLow,PressureMaxIn,PressureMinIn,WindSpeedMaxMPH,WindSpeedAvgMPH,GustSpeedMaxMPH,PrecipitationSumIn
2013-3-1,36.7,29.1,22.3,26.0,20.5,14.5,83,71,53,29.93,29.81,12,4,12,0.00
2013-3-2,40.1,24.6,14.4,20.8,14.7,10.1,85,67,44,29.93,29.87,10,3,10,0.00
2013-3-3,43.2,24.1,10.0,19.7,12.5,4.6,86,63,39,29.90,29.81,9,2,10,0.00
2013-3-4,47.5,25.6,9.3,22.2,12.4,2.4,83,60,32,29.93,29.84,5,0,6,0.00
2013-3-5,34.0,27.8,21.6,22.4,16.7,10.1,79,63,53,29.90,29.63,17,3,17,0.00
2013-3-6,42.8,34.4,27.5,28.4,26.3,21.9,86,73,54,30.01,29.75,11,4,12,0.00
2013-3-7,41.4,33.5,23.5,29.4,23.2,16.0,88,67,43,30.19,30.01,8,2,10,0.00
2013-3-8,52.7,31.3,15.8,26.5,18.7,11.3,89,63,33,30.25,30.16,8,1,8,0.00
2013-3-9,43.3,32.5,22.8,27.2,22.4,17.3,83,67,49,30.16,29.87,8,2,8,0.00
2013-3-10,48.6,45.7,42.4,46.9,44.8,41.9,98,97,93,29.66,29.48,4,0,5,0.12
2013-3-11,51.6,44.0,34.7,51.1,43.1,34.2,98,97,87,29.48,29.25,17,4,17,0.12
2013-3-12,35.1,32.2,28.9,34.5,28.4,23.2,98,86,68,29.69,29.45,13,3,13,0.00
2013-3-13,35.6,28.1,23.4,26.4,18.0,10.3,91,68,43,30.01,29.69,13,5,13,0.00
2013-3-14,45.1,30.4,18.5,23.4,17.3,12.4,87,60,38,30.04,29.87,10,2,12,0.00
2013-3-15,41.4,36.9,32.5,34.4,32.1,22.8,95,83,67,29.87,29.63,10,3,11,0.00
2013-3-16,38.3,31.1,26.4,32.4,24.3,17.6,95,77,54,29.87,29.54,13,2,13,0.08
2013-3-17,40.1,28.9,23.4,20.8,14.7,9.3,75,56,40,30.04,29.87,13,3,13,0.00
2013-3-18,34.0,28.5,21.7,33.5,23.0,12.2,98,80,59,29.90,29.36,15,3,15,0.04
2013-3-19,30.9,24.9,20.8,29.4,16.9,10.6,94,72,50,29.75,29.42,18,7,18,0.00
2013-3-20,30.7,23.2,14.7,14.3,11.6,0.0,77,61,47,29.78,29.69,12,4,12,0.00
2013-3-21,33.6,24.3,12.0,23.0,16.6,6.9,91,73,57,29.78,29.66,11,3,11,0.00
2013-3-22,42.1,31.3,23.4,22.7,18.3,14.2,72,59,43,29.84,29.75,12,3,13,0.00
2013-3-23,38.5,30.7,22.3,22.8,20.6,15.6,81,66,51,29.93,29.81,8,2,9,0.00
2013-3-24,43.2,31.2,22.8,25.1,20.8,15.4,87,67,44,29.84,29.51,15,3,15,0.00
2013-3-25,41.7,35.0,30.9,25.0,21.9,18.4,71,59,44,29.78,29.42,15,7,15,0.00
2013-3-26,45.3,35.5,29.5,35.8,28.5,23.3,88,76,50,29.96,29.78,10,3,10,0.04
2013-3-27,47.3,36.8,30.2,32.6,26.5,18.0,97,69,38,30.04,29.96,13,4,13,0.00
2013-3-28,57.4,37.9,24.3,30.5,22.1,14.4,92,58,27,30.07,30.01,12,2,12,0.00
2013-3-29,58.1,37.4,21.6,32.3,21.2,15.4,90,57,25,30.07,29.98,10,2,10,0.00
2013-3-30,61.7,34.8,22.1,31.5,22.2,17.5,93,65,25,30.01,29.66,13,2,230,0.00
2013-3-31,48.7,43.8,37.4,41.2,35.5,26.4,94,73,51,29.66,29.45,11,4,11,0.04